createdAt,value
2019-05-20T00:02:43.902Z,95863.97
2019-05-20T00:07:45.677Z,95862.65
2019-05-20T00:12:47.168Z,95852.15
2019-05-20T00:18:46.379Z,95851.14
2019-05-20T00:39:19.916Z,95827.53
2019-05-20T00:44:32.765Z,95821.44
2019-05-20T00:50:31.122Z,95823.06
2019-05-20T01:01:52.337Z,95817.19
2019-05-20T01:07:24.752Z,95813.72
2019-05-20T01:18:19.278Z,95807.31
2019-05-20T01:30:00.275Z,95797.25
2019-05-20T01:35:10.963Z,95804.34
2019-05-20T01:40:18.794Z,95803.50
2019-05-20T01:45:23.889Z,95799.89
2019-05-20T01:50:24.712Z,95801.05
2019-05-20T01:55:43.372Z,95802.84
2019-05-20T02:01:30.538Z,95801.22
2019-05-20T02:21:57.591Z,95802.05
2019-05-20T02:35:04.573Z,95802.68
2019-05-20T02:39:49.870Z,95808.73
2019-05-20T02:45:28.491Z,95804.11
2019-05-20T02:56:29.656Z,95805.76
2019-05-20T03:01:34.668Z,95801.32
2019-05-20T03:06:34.226Z,95805.08
2019-05-20T03:11:33.575Z,95807.05
2019-05-20T03:16:30.397Z,95805.21
2019-05-20T03:21:26.668Z,95809.65
2019-05-20T03:26:29.463Z,95809.02
2019-05-20T03:31:34.098Z,95808.99
2019-05-20T03:36:31.887Z,95805.95
2019-05-20T03:41:30.872Z,95799.56
2019-05-20T03:46:33.640Z,95810.52
2019-05-20T03:51:39.545Z,95807.75
2019-05-20T03:56:35.748Z,95817.22
2019-05-20T04:01:31.722Z,95817.75
2019-05-20T04:06:27.634Z,95821.66
2019-05-20T04:11:23.430Z,95825.41
2019-05-20T04:16:19.344Z,95823.77
2019-05-20T04:21:15.251Z,95831.48
2019-05-20T04:26:11.663Z,95826.06
2019-05-20T04:31:07.632Z,95827.66
2019-05-20T04:36:03.593Z,95824.25
2019-05-20T04:40:59.474Z,95827.05
2019-05-20T04:45:55.440Z,95828.48
2019-05-20T04:50:51.831Z,95830.82
2019-05-20T04:55:48.146Z,95830.30
2019-05-20T05:00:55.769Z,95833.09
2019-05-20T05:05:58.661Z,95846.76
2019-05-20T05:10:56.784Z,95844.95
2019-05-20T05:16:22.646Z,95857.56
2019-05-20T05:28:17.627Z,95875.42
2019-05-20T05:33:14.504Z,95863.44
2019-05-20T05:38:10.303Z,95861.95
2019-05-20T05:43:06.315Z,95862.78
2019-05-20T05:48:02.386Z,95853.86
2019-05-20T05:52:59.707Z,95849.77
2019-05-20T05:57:55.564Z,95835.52
2019-05-20T06:02:51.406Z,95838.14
2019-05-20T06:07:47.575Z,95837.61
2019-05-20T06:12:43.513Z,95855.19
2019-05-20T06:17:39.436Z,95859.95
2019-05-20T06:22:35.398Z,95860.56
2019-05-20T06:27:31.331Z,95864.52
2019-05-20T06:32:27.293Z,95860.14
2019-05-20T06:37:25.040Z,95858.50
2019-05-20T06:42:20.955Z,95850.22
2019-05-20T06:47:16.913Z,95856.15
2019-05-20T06:52:13.040Z,95863.41
2019-05-20T06:57:10.161Z,95866.38
2019-05-20T07:02:09.482Z,95870.16
2019-05-20T07:07:19.922Z,95869.83
2019-05-20T07:12:06.337Z,95881.50
2019-05-20T07:17:05.316Z,95881.21
2019-05-20T07:22:34.612Z,95889.53
2019-05-20T07:27:31.774Z,95894.38
2019-05-20T07:32:27.753Z,95881.44
2019-05-20T07:37:23.642Z,95879.08
2019-05-20T07:42:19.637Z,95875.27
2019-05-20T07:47:25.597Z,95883.58
2019-05-20T07:52:37.582Z,95886.36
2019-05-20T07:57:38.458Z,95898.88
2019-05-20T08:02:40.762Z,95903.64
2019-05-20T08:14:24.940Z,95903.16
2019-05-20T08:19:26.721Z,95901.96
2019-05-20T08:24:28.990Z,95907.50
2019-05-20T08:29:47.795Z,95903.11
2019-05-20T08:34:57.017Z,95901.17
2019-05-20T08:45:30.582Z,95913.70
2019-05-20T08:50:45.079Z,95912.18
2019-05-20T08:56:01.471Z,95925.81
2019-05-20T09:02:19.711Z,95926.52
2019-05-20T09:14:56.244Z,95929.02
2019-05-20T09:25:38.335Z,95940.23
2019-05-20T09:30:34.345Z,95925.95
2019-05-20T09:36:25.924Z,95933.47
2019-05-20T09:41:21.832Z,95932.16
2019-05-20T09:46:19.309Z,95936.05
2019-05-20T09:51:16.350Z,95925.78
2019-05-20T09:56:13.698Z,95923.53
2019-05-20T10:01:15.969Z,95914.53
2019-05-20T10:06:33.833Z,95908.25
2019-05-20T10:11:42.467Z,95915.02
2019-05-20T10:16:56.178Z,95921.27
2019-05-20T10:21:57.442Z,95931.03
2019-05-20T10:26:55.219Z,95929.19
2019-05-20T10:31:54.434Z,95939.70
2019-05-20T10:37:02.516Z,95941.51
2019-05-20T10:42:03.410Z,95942.73
2019-05-20T10:47:06.178Z,95952.18
2019-05-20T10:52:29.280Z,95955.52
2019-05-20T10:57:49.837Z,95964.88
2019-05-20T11:03:31.222Z,95959.38
2019-05-20T11:08:49.860Z,95962.05
2019-05-20T11:20:29.848Z,95979.34
2019-05-20T11:25:45.596Z,95987.45
2019-05-20T11:32:15.258Z,95991.73
2019-05-20T11:37:10.976Z,95991.51
2019-05-20T11:42:04.904Z,95985.59
2019-05-20T11:47:23.480Z,95987.58
2019-05-20T11:52:31.991Z,95982.12
2019-05-20T11:57:31.537Z,95985.73
2019-05-20T12:02:41.365Z,95980.48
2019-05-20T12:07:37.527Z,95986.60
2019-05-20T12:20:18.512Z,95986.23
2019-05-20T12:25:20.245Z,95983.88
2019-05-20T12:30:18.257Z,95972.91
2019-05-20T12:35:23.992Z,95984.86
2019-05-20T12:40:29.267Z,95990.81
2019-05-20T12:45:30.536Z,95996.41
2019-05-20T12:50:56.611Z,95989.79
2019-05-20T12:56:12.605Z,95998.55
2019-05-20T13:07:40.901Z,95998.19
2019-05-20T13:12:59.675Z,96004.16
2019-05-20T13:17:57.904Z,96008.30
2019-05-20T13:23:01.414Z,96009.86
2019-05-20T13:28:33.796Z,96018.25
2019-05-20T13:33:37.400Z,96017.95
2019-05-20T13:38:48.644Z,96013.05
2019-05-20T13:43:52.781Z,96013.43
2019-05-20T13:48:56.060Z,96002.64
2019-05-20T13:53:58.919Z,96012.63
2019-05-20T13:59:00.363Z,96009.89
2019-05-20T14:09:41.934Z,96007.80
2019-05-20T14:14:58.419Z,96004.85
2019-05-20T14:20:08.259Z,96007.97
2019-05-20T14:25:17.105Z,96005.08
2019-05-20T14:30:13.728Z,96011.52
2019-05-20T14:35:19.318Z,96013.19
2019-05-20T14:40:22.725Z,96012.86
2019-05-20T14:50:46.907Z,96025.95
2019-05-20T14:55:45.522Z,96018.72
2019-05-20T15:01:04.945Z,96023.70
2019-05-20T15:06:25.933Z,96027.15
2019-05-20T15:11:38.338Z,96046.42
2019-05-20T15:16:26.820Z,96047.94
2019-05-20T15:21:29.555Z,96050.56
2019-05-20T15:26:49.019Z,96043.16
2019-05-20T15:31:55.368Z,96034.12
2019-05-20T15:37:25.272Z,96045.25
2019-05-20T15:42:51.476Z,96034.84
2019-05-20T15:47:59.993Z,96037.77
2019-05-20T18:49:25.339Z,96093.24
2019-05-20T18:54:21.180Z,96099.16
2019-05-20T18:59:17.302Z,96115.69
2019-05-20T19:04:13.239Z,96117.83
2019-05-20T19:09:10.311Z,96115.84
2019-05-20T19:14:08.501Z,96114.20
2019-05-20T19:19:04.240Z,96115.14
2019-05-20T19:24:00.169Z,96123.23
2019-05-20T19:28:56.000Z,96128.16
2019-05-20T19:39:47.343Z,96143.92
2019-05-20T19:45:34.298Z,96143.25
2019-05-20T19:50:33.369Z,96145.23
2019-05-20T19:55:30.639Z,96148.13
2019-05-20T20:00:35.896Z,96150.27
2019-05-20T20:05:32.724Z,96153.75
2019-05-20T20:10:28.670Z,96163.22
2019-05-20T20:15:24.565Z,96160.66
2019-05-20T20:20:23.499Z,96159.62
2019-05-20T20:25:19.432Z,96175.87
2019-05-20T20:30:16.285Z,96185.73
2019-05-20T20:35:13.879Z,96186.59
2019-05-20T20:40:11.505Z,96194.66
2019-05-20T20:45:09.971Z,96189.34
2019-05-20T20:50:06.260Z,96209.53
2019-05-20T20:55:02.198Z,96218.47
2019-05-20T21:00:00.128Z,96224.28
2019-05-20T21:04:55.940Z,96237.61
2019-05-20T21:09:51.828Z,96240.38
2019-05-20T21:14:47.706Z,96243.16
2019-05-20T21:19:43.675Z,96242.08
2019-05-20T21:24:39.497Z,96235.03
2019-05-20T21:29:35.398Z,96244.93
2019-05-20T21:34:31.486Z,96258.20
2019-05-20T21:39:27.633Z,96255.21
2019-05-20T21:44:23.479Z,96258.47
2019-05-20T21:49:19.622Z,96263.16
2019-05-20T21:54:18.284Z,96257.57
2019-05-20T22:05:27.226Z,96274.16
2019-05-20T22:10:23.036Z,96275.05
2019-05-20T22:15:18.990Z,96279.77
2019-05-20T22:20:15.239Z,96282.84
2019-05-20T22:25:11.654Z,96284.16
2019-05-20T22:30:09.483Z,96275.75
2019-05-20T22:35:05.731Z,96285.20
2019-05-20T22:40:01.786Z,96284.38
2019-05-20T22:44:58.407Z,96284.86
2019-05-20T22:49:54.338Z,96291.00
2019-05-20T22:54:50.239Z,96290.66
2019-05-20T22:59:46.216Z,96296.99
2019-05-20T23:04:42.137Z,96299.78
2019-05-20T23:09:38.105Z,96302.13
2019-05-20T23:14:35.353Z,96296.73
2019-05-20T23:19:31.413Z,96296.16
2019-05-20T23:24:27.218Z,96293.00
2019-05-20T23:29:23.092Z,96293.75
2019-05-20T23:34:19.196Z,96302.36
2019-05-20T23:39:15.115Z,96312.52
2019-05-20T23:44:11.158Z,96314.25
2019-05-20T23:49:07.036Z,96319.31
2019-05-20T23:54:03.062Z,96304.79
2019-05-20T23:58:58.996Z,96306.50
